F E Warren AFB, Wyoming
Current Conditions -  °F | °C
As of 6:53 AM on Friday 31 Oct 2014 (Local Time) from KCYS Reporting Station
Clear Clear  
Wind Chill: 22°   Ceiling: Unl
Heat Index: 30°   Visibility: 10mi
Dew Point: 26°   Wind: 9mph
Humidity: 85%   Direction: 200°SSW
Pressure: 30.33"   Gusts: NA
Location:  41.13°N, 104.82°W
Report Text: KCYS 311253Z 20008KT 10SM CLR M01/M03 A3033 RMK AO2 SLP271 T10111033
Loading
Personal Weather Stations






























Interactive Weather Map New forecast layout! Learn more

10-Day Weather Forecast

Advertisements
Track Severe Weather on mobile